Johnston Rgnl Information

FAA: JNX - ICAO: KJNX

Johnston Rgnl (Airport) Location

State North Carolina
County Johnston
City Smithfield
Johnston Rgnl (Airport) is 3 miles northwest of Smithfield, NC.
Latitude 35-32-27.3770N
Longitude 078-23-25.1720W
Elevation 164ft

Johnston Rgnl METARs

METAR KJNX 190755Z AUTO 20007KT 10SM CLR 22/15 A2983 RMK AO2
Altimeter 29.83"
Temperature 22.0°C (71.6°F)
Wind 200° at 7KT
Clouds Skies are clear.
Visibility 10.0mi
Time observed: 2022-05-19T07:55:00Z

Johnston Rgnl (Airport) Details

Status Operational
Activation June 1978
Ownership Public
Usage Public
Chart CHARLOTTE
ATC on-site No
Beacon schedule sunset-sunrise
Beacon color clear green

Johnston Rgnl (Airport) Contacts

Owner JOHNSTON CO ARPT AUTH
Owner address 3149 SWIFT CREEK RD, SMITHFIELD, NC 27577-9803
Owner phone 919-934-0992
Manager ROBERT ROGERS
Manager address 385 TAILWINDS LANE, ST PAULS, NC 28384
Manager phone 910-865-5611

Johnston Rgnl Radio Frequencies

Johnston Rgnl (Airport) Radio Frequencies

UNICOM 122.725
Common traffic advisory frequency (CTAF) 122.725